Time;durP1;ratioP1;P1;durP2;ratioP2;P2;SDS_P1;SDS_P2;PMS_P1;PMS_P2;Temp;Humidity;BMP_temperature;BMP_pressure;BME280_temperature;BME280_humidity;BME280_pressure;Samples;Min_cycle;Max_cycle;Signal;HPM_P1;HPM_P2
2023/06/29 00:01:55;;;;;;;4.53;4.07;;;;;;;;;;5053277;28;20211;-50
2023/06/29 00:04:21;;;;;;;4.80;4.30;;;;;;;;;;5053032;28;20724;-48
2023/06/29 00:06:49;;;;;;;4.80;4.30;;;;;;;;;;5070791;28;21307;-50
2023/06/29 00:09:16;;;;;;;8.83;4.33;;;;;;;;;;5072813;28;20233;-49
2023/06/29 00:11:42;;;;;;;7.63;3.83;;;;;;;;;;5072828;28;20254;-49
2023/06/29 00:14:09;;;;;;;5.30;4.00;;;;;;;;;;5073218;28;20565;-50
2023/06/29 00:16:35;;;;;;;5.13;3.83;;;;;;;;;;5072840;28;20221;-49
2023/06/29 00:19:02;;;;;;;5.63;4.00;;;;;;;;;;5067527;28;20207;-50
2023/06/29 00:21:28;;;;;;;4.47;4.07;;;;;;;;;;5072643;28;20205;-49
2023/06/29 00:23:54;;;;;;;3.73;3.40;;;;;;;;;;5073049;28;20190;-51
2023/06/29 00:26:21;;;;;;;6.00;3.77;;;;;;;;;;5072340;28;20738;-49
2023/06/29 00:28:47;;;;;;;6.30;4.50;;;;;;;;;;5071679;28;20319;-51
2023/06/29 00:31:14;;;;;;;4.33;3.80;;;;;;;;;;5071661;28;20669;-48
2023/06/29 00:33:40;;;;;;;4.47;4.07;;;;;;;;;;5071638;28;20202;-50
2023/06/29 00:36:06;;;;;;;6.07;4.10;;;;;;;;;;5071280;28;20195;-51
2023/06/29 00:38:32;;;;;;;5.97;4.33;;;;;;;;;;5071855;28;20188;-50
2023/06/29 00:40:58;;;;;;;6.83;4.40;;;;;;;;;;5071405;28;20197;-51
2023/06/29 00:43:24;;;;;;;4.50;4.10;;;;;;;;;;5071319;28;20403;-51
2023/06/29 00:45:50;;;;;;;4.47;3.93;;;;;;;;;;5070984;28;20219;-51
2023/06/29 00:48:17;;;;;;;5.63;3.90;;;;;;;;;;5071422;28;20731;-50
2023/06/29 00:50:43;;;;;;;4.47;4.00;;;;;;;;;;5071550;28;20214;-50
2023/06/29 00:53:09;;;;;;;5.53;4.17;;;;;;;;;;5071388;28;20205;-49
2023/06/29 00:55:36;;;;;;;8.07;4.47;;;;;;;;;;5071244;28;20211;-50
2023/06/29 00:58:02;;;;;;;6.03;4.23;;;;;;;;;;5071426;28;20198;-50
2023/06/29 01:00:28;;;;;;;5.13;4.63;;;;;;;;;;5071314;28;20225;-49
2023/06/29 01:02:54;;;;;;;6.03;4.90;;;;;;;;;;5071157;28;20216;-49
2023/06/29 01:05:21;;;;;;;6.10;4.60;;;;;;;;;;5070974;28;20248;-50
2023/06/29 01:07:50;;;;;;;6.53;4.40;;;;;;;;;;5071109;28;20233;-49
2023/06/29 01:10:19;;;;;;;6.77;5.13;;;;;;;;;;5070896;28;20250;-49
2023/06/29 01:12:46;;;;;;;5.77;4.97;;;;;;;;;;5071035;28;20224;-49
2023/06/29 01:15:12;;;;;;;5.63;4.83;;;;;;;;;;5070783;28;20207;-51
2023/06/29 01:17:39;;;;;;;8.33;4.73;;;;;;;;;;5070612;28;20201;-51
2023/06/29 01:20:10;;;;;;;5.77;4.63;;;;;;;;;;5069940;28;20197;-49
2023/06/29 01:22:41;;;;;;;5.60;5.00;;;;;;;;;;5070677;28;20234;-49
2023/06/29 01:25:08;;;;;;;6.70;5.00;;;;;;;;;;5069862;28;20209;-51
2023/06/29 01:27:34;;;;;;;10.20;6.47;;;;;;;;;;5035244;28;1011785;-51
2023/06/29 01:30:01;;;;;;;6.20;5.60;;;;;;;;;;5070957;28;20194;-51
2023/06/29 01:32:33;;;;;;;6.70;5.67;;;;;;;;;;5070651;28;20343;-51
2023/06/29 01:35:00;;;;;;;6.70;5.90;;;;;;;;;;5070468;28;20291;-50
2023/06/29 01:37:28;;;;;;;8.43;6.03;;;;;;;;;;5070600;28;20252;-50
2023/06/29 01:39:56;;;;;;;7.83;5.67;;;;;;;;;;5070774;28;20248;-51
2023/06/29 01:42:24;;;;;;;6.50;5.90;;;;;;;;;;5070485;28;20196;-50
2023/06/29 01:44:50;;;;;;;7.73;5.57;;;;;;;;;;5070785;28;20214;-50
2023/06/29 01:47:17;;;;;;;7.40;5.73;;;;;;;;;;5070280;28;20204;-52
2023/06/29 01:49:43;;;;;;;6.07;5.10;;;;;;;;;;5070475;28;20252;-49
2023/06/29 01:52:09;;;;;;;5.40;4.90;;;;;;;;;;5070376;28;20279;-50
2023/06/29 01:54:35;;;;;;;6.37;5.40;;;;;;;;;;5070005;28;20300;-50
2023/06/29 01:57:01;;;;;;;7.03;5.70;;;;;;;;;;5070178;28;20302;-50
2023/06/29 01:59:29;;;;;;;8.33;5.57;;;;;;;;;;5071193;28;20222;-49
2023/06/29 02:01:55;;;;;;;6.33;5.20;;;;;;;;;;5071155;28;20212;-50
2023/06/29 02:04:20;;;;;;;8.70;5.53;;;;;;;;;;5070908;28;20224;-50
2023/06/29 02:06:47;;;;;;;6.53;5.17;;;;;;;;;;5070964;28;20612;-52
2023/06/29 02:09:15;;;;;;;5.93;5.13;;;;;;;;;;5070873;28;20267;-49
2023/06/29 02:11:41;;;;;;;5.10;4.60;;;;;;;;;;5070993;28;20207;-49
2023/06/29 02:14:07;;;;;;;4.97;4.37;;;;;;;;;;5070863;28;20579;-50
2023/06/29 02:16:34;;;;;;;6.47;5.33;;;;;;;;;;5070734;28;20246;-51
2023/06/29 02:19:00;;;;;;;5.97;5.13;;;;;;;;;;5070677;28;20660;-50
2023/06/29 02:21:26;;;;;;;6.03;4.87;;;;;;;;;;5070684;28;20201;-49
2023/06/29 02:23:52;;;;;;;6.47;5.07;;;;;;;;;;5070656;28;20200;-50
2023/06/29 02:26:18;;;;;;;5.97;5.03;;;;;;;;;;5070425;28;20235;-51
2023/06/29 02:28:44;;;;;;;6.40;5.70;;;;;;;;;;5070476;28;20228;-50
2023/06/29 02:31:10;;;;;;;6.23;5.63;;;;;;;;;;5070699;28;20199;-50
2023/06/29 02:33:37;;;;;;;6.10;5.50;;;;;;;;;;5070412;28;20291;-52
2023/06/29 02:36:04;;;;;;;6.83;5.50;;;;;;;;;;5070394;28;20200;-52
2023/06/29 02:38:30;;;;;;;6.07;5.57;;;;;;;;;;5070671;28;20205;-49
2023/06/29 02:40:56;;;;;;;8.37;6.53;;;;;;;;;;5070132;28;20683;-51
2023/06/29 02:43:22;;;;;;;7.23;6.13;;;;;;;;;;5070267;28;20246;-51
2023/06/29 02:45:48;;;;;;;7.17;5.80;;;;;;;;;;5070151;28;20198;-50
2023/06/29 02:48:14;;;;;;;7.10;6.13;;;;;;;;;;5070173;28;20220;-50
2023/06/29 02:50:41;;;;;;;8.50;6.00;;;;;;;;;;5070542;28;20203;-50
2023/06/29 02:53:07;;;;;;;8.83;6.47;;;;;;;;;;5070500;28;20207;-48
2023/06/29 02:55:33;;;;;;;6.80;6.10;;;;;;;;;;5069967;28;20195;-52
2023/06/29 02:57:59;;;;;;;8.13;5.70;;;;;;;;;;5070038;28;20261;-50
2023/06/29 03:00:25;;;;;;;7.20;6.50;;;;;;;;;;5070002;28;20211;-51
2023/06/29 03:02:51;;;;;;;8.40;6.10;;;;;;;;;;5070256;28;20196;-51
2023/06/29 03:05:17;;;;;;;7.53;6.73;;;;;;;;;;5069835;28;20217;-51
2023/06/29 03:07:45;;;;;;;9.10;6.07;;;;;;;;;;5069728;28;20224;-53
2023/06/29 03:10:10;;;;;;;6.57;5.97;;;;;;;;;;5069206;28;20218;-51
2023/06/29 03:12:37;;;;;;;7.37;6.63;;;;;;;;;;5069346;28;20662;-52
2023/06/29 03:15:03;;;;;;;7.70;6.57;;;;;;;;;;5069995;28;20629;-50
2023/06/29 03:17:29;;;;;;;7.50;6.70;;;;;;;;;;5070120;28;20535;-51
2023/06/29 03:19:55;;;;;;;7.80;7.00;;;;;;;;;;5069630;28;20206;-50
2023/06/29 03:22:21;;;;;;;7.63;6.93;;;;;;;;;;5069671;28;20561;-52
2023/06/29 03:24:48;;;;;;;11.03;7.43;;;;;;;;;;5069980;28;20200;-50
2023/06/29 03:27:14;;;;;;;7.77;6.87;;;;;;;;;;5069602;28;20243;-51
2023/06/29 03:29:40;;;;;;;8.37;7.60;;;;;;;;;;5069698;28;20231;-50
2023/06/29 03:32:06;;;;;;;8.73;7.83;;;;;;;;;;5069674;28;20215;-50
2023/06/29 03:34:32;;;;;;;8.40;7.67;;;;;;;;;;5069953;28;20199;-49
2023/06/29 03:36:58;;;;;;;8.23;7.43;;;;;;;;;;5069919;28;20199;-51
2023/06/29 03:39:24;;;;;;;9.97;8.37;;;;;;;;;;5069491;28;20873;-50
2023/06/29 03:41:52;;;;;;;10.13;8.13;;;;;;;;;;5069710;28;20226;-50
2023/06/29 03:44:18;;;;;;;9.40;8.50;;;;;;;;;;5069735;28;20204;-51
2023/06/29 03:46:44;;;;;;;10.57;9.00;;;;;;;;;;5069993;28;20196;-51
2023/06/29 03:49:10;;;;;;;9.10;8.30;;;;;;;;;;5069618;28;20235;-51
2023/06/29 03:51:36;;;;;;;8.47;7.47;;;;;;;;;;5069625;28;20219;-52
2023/06/29 03:54:02;;;;;;;10.77;8.27;;;;;;;;;;5069395;28;20203;-50
2023/06/29 03:56:28;;;;;;;8.23;7.53;;;;;;;;;;5069503;28;20197;-50
2023/06/29 03:58:55;;;;;;;9.00;8.20;;;;;;;;;;5069646;28;20191;-48
2023/06/29 04:01:21;;;;;;;8.43;7.27;;;;;;;;;;5069450;28;20207;-52
2023/06/29 04:03:47;;;;;;;8.13;7.27;;;;;;;;;;5069654;28;20195;-49
2023/06/29 04:06:13;;;;;;;8.57;7.67;;;;;;;;;;5069190;28;20571;-48
2023/06/29 04:08:39;;;;;;;9.00;8.07;;;;;;;;;;5069327;28;20239;-49
2023/06/29 04:11:05;;;;;;;10.50;8.53;;;;;;;;;;5069501;28;20254;-49
2023/06/29 04:13:31;;;;;;;11.23;9.30;;;;;;;;;;5069357;28;20196;-51
2023/06/29 04:15:58;;;;;;;10.73;9.73;;;;;;;;;;5069509;28;20294;-50
2023/06/29 04:18:24;;;;;;;10.20;9.10;;;;;;;;;;5069388;28;20201;-49
2023/06/29 04:20:51;;;;;;;10.53;9.53;;;;;;;;;;5072583;28;20566;-49
2023/06/29 04:23:17;;;;;;;14.07;10.70;;;;;;;;;;5073000;28;20196;-49
2023/06/29 04:25:43;;;;;;;11.70;10.33;;;;;;;;;;5072517;28;20539;-49
2023/06/29 04:28:11;;;;;;;11.13;10.03;;;;;;;;;;5072926;28;20284;-51
2023/06/29 04:30:39;;;;;;;10.83;9.50;;;;;;;;;;5072942;28;20587;-50
2023/06/29 04:33:10;;;;;;;16.23;10.77;;;;;;;;;;5072994;28;20249;-50
2023/06/29 04:35:36;;;;;;;11.77;9.57;;;;;;;;;;5072459;28;20232;-51
2023/06/29 04:38:02;;;;;;;10.97;9.83;;;;;;;;;;5072881;28;20219;-50
2023/06/29 04:40:28;;;;;;;13.00;9.83;;;;;;;;;;5072687;28;20223;-51
2023/06/29 04:42:55;;;;;;;12.27;11.07;;;;;;;;;;5072747;28;20301;-50
2023/06/29 04:45:21;;;;;;;15.57;11.60;;;;;;;;;;5072574;28;20664;-51
2023/06/29 04:47:49;;;;;;;11.27;10.27;;;;;;;;;;5072372;28;20192;-50
2023/06/29 04:50:16;;;;;;;11.10;9.70;;;;;;;;;;5072314;28;20703;-51
2023/06/29 04:52:43;;;;;;;12.53;10.83;;;;;;;;;;5072695;28;20218;-51
2023/06/29 04:55:10;;;;;;;10.87;9.77;;;;;;;;;;5072322;28;20220;-50
2023/06/29 04:57:36;;;;;;;11.23;10.13;;;;;;;;;;5072469;28;20211;-50
2023/06/29 05:00:07;;;;;;;11.70;10.50;;;;;;;;;;5072477;28;20208;-51
2023/06/29 05:02:33;;;;;;;12.67;10.53;;;;;;;;;;5072451;28;20219;-50
2023/06/29 05:04:59;;;;;;;12.17;10.10;;;;;;;;;;5072031;28;20926;-49
2023/06/29 05:07:26;;;;;;;12.70;11.03;;;;;;;;;;5072382;28;20287;-51
2023/06/29 05:09:52;;;;;;;11.50;10.27;;;;;;;;;;5072013;28;20231;-50
2023/06/29 05:12:18;;;;;;;12.00;10.50;;;;;;;;;;5071944;28;20199;-51
2023/06/29 05:14:44;;;;;;;15.63;11.90;;;;;;;;;;5071994;28;20297;-51
2023/06/29 05:17:10;;;;;;;11.60;10.27;;;;;;;;;;5071490;28;20199;-50
2023/06/29 05:19:36;;;;;;;12.63;11.13;;;;;;;;;;5071832;28;20622;-50
2023/06/29 05:22:02;;;;;;;12.77;10.73;;;;;;;;;;5071795;28;20203;-50
2023/06/29 05:24:30;;;;;;;12.90;10.90;;;;;;;;;;5071863;28;20206;-50
2023/06/29 05:26:56;;;;;;;12.07;10.87;;;;;;;;;;5071630;28;20239;-51
2023/06/29 05:29:22;;;;;;;12.87;10.73;;;;;;;;;;5071730;28;20317;-51
2023/06/29 05:31:48;;;;;;;13.53;10.77;;;;;;;;;;5070478;28;20196;-51
2023/06/29 05:34:13;;;;;;;12.27;10.07;;;;;;;;;;5071507;28;20254;-50
2023/06/29 05:36:39;;;;;;;11.53;10.43;;;;;;;;;;5071231;28;20279;-50
2023/06/29 05:39:06;;;;;;;11.43;10.40;;;;;;;;;;5071355;28;20196;-50
2023/06/29 05:41:34;;;;;;;11.43;10.00;;;;;;;;;;5071911;28;20199;-50
2023/06/29 05:44:00;;;;;;;11.83;10.73;;;;;;;;;;5071310;28;20780;-49
2023/06/29 05:46:26;;;;;;;13.53;11.10;;;;;;;;;;5071387;28;20232;-49
2023/06/29 05:48:52;;;;;;;13.33;11.23;;;;;;;;;;5071450;28;20228;-51
2023/06/29 05:51:18;;;;;;;14.03;10.97;;;;;;;;;;5071196;28;20731;-50
2023/06/29 05:53:44;;;;;;;15.40;11.70;;;;;;;;;;5071061;28;20207;-49
2023/06/29 05:56:10;;;;;;;14.47;10.97;;;;;;;;;;5070952;28;20701;-50
2023/06/29 05:58:37;;;;;;;14.00;11.50;;;;;;;;;;5071034;28;20208;-50
2023/06/29 06:01:04;;;;;;;12.30;10.97;;;;;;;;;;5071050;28;20204;-51
2023/06/29 06:03:30;;;;;;;12.33;10.97;;;;;;;;;;5071054;28;20201;-49
2023/06/29 06:05:55;;;;;;;11.57;10.17;;;;;;;;;;5071034;28;20240;-49
2023/06/29 06:08:22;;;;;;;13.53;11.43;;;;;;;;;;5070820;28;20225;-50
2023/06/29 06:10:48;;;;;;;12.33;10.47;;;;;;;;;;5070865;28;20201;-50
2023/06/29 06:13:14;;;;;;;12.07;10.20;;;;;;;;;;5070618;28;20913;-50
2023/06/29 06:15:41;;;;;;;13.03;9.97;;;;;;;;;;5070950;28;20197;-50
2023/06/29 06:18:07;;;;;;;15.40;11.47;;;;;;;;;;5070722;28;20665;-50
2023/06/29 06:20:33;;;;;;;14.50;11.17;;;;;;;;;;5070561;28;20211;-49
2023/06/29 06:22:59;;;;;;;14.30;11.37;;;;;;;;;;5070729;28;20293;-50
2023/06/29 06:25:26;;;;;;;15.77;10.73;;;;;;;;;;5070937;28;20240;-50
2023/06/29 06:27:52;;;;;;;15.40;11.13;;;;;;;;;;5069164;28;20241;-49
2023/06/29 06:30:18;;;;;;;15.03;10.67;;;;;;;;;;5070489;28;20202;-51
2023/06/29 06:32:45;;;;;;;11.40;10.30;;;;;;;;;;5070425;28;20201;-51
2023/06/29 06:35:12;;;;;;;12.87;10.50;;;;;;;;;;5070813;28;20204;-50
2023/06/29 06:37:38;;;;;;;12.57;10.27;;;;;;;;;;5070415;28;20284;-49
2023/06/29 06:40:08;;;;;;;12.40;9.93;;;;;;;;;;5070224;28;20201;-49
2023/06/29 06:42:34;;;;;;;14.33;10.07;;;;;;;;;;5069862;28;20233;-49
2023/06/29 06:45:03;;;;;;;11.07;9.33;;;;;;;;;;5070460;28;20206;-48
2023/06/29 06:47:29;;;;;;;15.23;10.67;;;;;;;;;;5070211;28;20198;-50
2023/06/29 06:49:56;;;;;;;13.90;9.80;;;;;;;;;;5070352;28;20317;-50
2023/06/29 06:52:22;;;;;;;12.47;9.73;;;;;;;;;;5070113;28;20202;-50
2023/06/29 06:54:48;;;;;;;12.00;9.70;;;;;;;;;;5070140;28;20661;-50
2023/06/29 06:57:14;;;;;;;17.83;10.97;;;;;;;;;;5070143;28;20252;-49
2023/06/29 06:59:40;;;;;;;14.00;10.57;;;;;;;;;;5069984;28;20203;-51
2023/06/29 07:02:07;;;;;;;11.80;10.27;;;;;;;;;;5069978;28;20735;-50
2023/06/29 07:04:33;;;;;;;10.93;9.83;;;;;;;;;;5070002;28;20661;-50
2023/06/29 07:07:00;;;;;;;13.47;11.07;;;;;;;;;;5069826;28;20284;-50
2023/06/29 07:09:27;;;;;;;10.33;8.60;;;;;;;;;;5069759;28;20223;-51
2023/06/29 07:11:53;;;;;;;11.67;9.23;;;;;;;;;;5069954;28;20230;-50
2023/06/29 07:14:21;;;;;;;12.30;9.50;;;;;;;;;;5062530;28;20233;-50
2023/06/29 07:16:47;;;;;;;12.60;9.33;;;;;;;;;;5069897;28;20261;-54
2023/06/29 07:19:14;;;;;;;12.43;9.17;;;;;;;;;;5070013;28;20858;-55
2023/06/29 07:21:39;;;;;;;11.93;9.90;;;;;;;;;;5069825;28;20336;-51
2023/06/29 07:24:08;;;;;;;14.13;10.13;;;;;;;;;;5069530;28;20194;-50
2023/06/29 07:26:34;;;;;;;13.17;9.70;;;;;;;;;;5067803;28;20848;-51
2023/06/29 07:29:00;;;;;;;10.43;9.33;;;;;;;;;;5069701;28;20226;-50
2023/06/29 07:31:26;;;;;;;10.90;9.50;;;;;;;;;;5069819;28;20195;-50
2023/06/29 07:33:53;;;;;;;10.30;8.10;;;;;;;;;;5070046;28;20291;-50
2023/06/29 07:36:19;;;;;;;13.67;9.70;;;;;;;;;;5069690;28;20203;-50
2023/06/29 07:38:45;;;;;;;12.23;9.20;;;;;;;;;;5069761;28;20187;-51
2023/06/29 07:41:12;;;;;;;12.70;9.70;;;;;;;;;;5069948;28;20238;-50
2023/06/29 07:43:39;;;;;;;12.83;10.17;;;;;;;;;;5069657;28;20207;-50
2023/06/29 07:46:05;;;;;;;11.03;9.73;;;;;;;;;;5069730;28;20257;-50
2023/06/29 07:48:31;;;;;;;11.97;9.17;;;;;;;;;;5069436;28;20219;-51
2023/06/29 07:50:58;;;;;;;10.03;8.83;;;;;;;;;;5069508;28;20715;-51
2023/06/29 07:53:24;;;;;;;9.60;7.90;;;;;;;;;;5069685;28;20203;-51
2023/06/29 07:55:50;;;;;;;10.50;7.93;;;;;;;;;;5071838;28;20260;-50
2023/06/29 07:58:17;;;;;;;13.00;8.90;;;;;;;;;;5073548;28;20188;-51
2023/06/29 08:00:43;;;;;;;12.57;8.93;;;;;;;;;;5073373;28;20204;-53
2023/06/29 08:03:09;;;;;;;9.97;8.23;;;;;;;;;;5073559;28;20203;-51
2023/06/29 08:05:35;;;;;;;8.97;7.57;;;;;;;;;;5073431;28;20265;-51
2023/06/29 08:08:01;;;;;;;11.73;9.40;;;;;;;;;;5073068;28;20195;-50
2023/06/29 08:10:27;;;;;;;10.90;8.27;;;;;;;;;;5073275;28;20684;-53
2023/06/29 08:12:53;;;;;;;11.77;7.83;;;;;;;;;;5073367;28;20224;-53
2023/06/29 08:15:21;;;;;;;10.27;8.40;;;;;;;;;;5072994;28;20332;-54
2023/06/29 08:17:47;;;;;;;10.93;8.70;;;;;;;;;;5073088;28;20203;-55
2023/06/29 08:20:13;;;;;;;11.33;9.50;;;;;;;;;;5073046;28;20658;-54
2023/06/29 08:22:39;;;;;;;13.10;7.73;;;;;;;;;;5072847;28;20203;-55
2023/06/29 08:25:05;;;;;;;9.33;7.50;;;;;;;;;;5072998;28;20245;-55
2023/06/29 08:27:32;;;;;;;11.13;8.77;;;;;;;;;;5072745;28;20251;-54
2023/06/29 08:30:01;;;;;;;10.10;8.40;;;;;;;;;;5072998;28;20239;-54
2023/06/29 08:32:28;;;;;;;12.20;8.70;;;;;;;;;;5072945;28;20199;-55
2023/06/29 08:34:54;;;;;;;13.40;8.80;;;;;;;;;;5072951;28;20203;-50
2023/06/29 08:37:20;;;;;;;13.23;8.43;;;;;;;;;;5072804;28;20211;-49
2023/06/29 08:39:46;;;;;;;14.40;9.20;;;;;;;;;;5072877;28;20220;-51
2023/06/29 08:42:12;;;;;;;10.97;8.47;;;;;;;;;;5072690;28;20221;-50
2023/06/29 08:44:38;;;;;;;13.87;8.30;;;;;;;;;;5072618;28;20205;-54
2023/06/29 08:47:05;;;;;;;12.17;8.20;;;;;;;;;;5072678;28;20617;-53
2023/06/29 08:49:34;;;;;;;9.87;7.77;;;;;;;;;;5072646;28;20258;-53
2023/06/29 08:52:03;;;;;;;10.90;8.53;;;;;;;;;;5072539;28;20305;-54
2023/06/29 08:54:31;;;;;;;14.47;9.47;;;;;;;;;;5072611;28;20291;-55
2023/06/29 08:56:58;;;;;;;13.00;8.97;;;;;;;;;;5072287;28;20282;-56
2023/06/29 08:59:24;;;;;;;11.97;8.53;;;;;;;;;;5072512;28;20199;-55
2023/06/29 09:01:51;;;;;;;13.67;9.73;;;;;;;;;;5072467;28;20194;-55
2023/06/29 09:04:17;;;;;;;12.47;9.03;;;;;;;;;;5072266;28;20295;-55
2023/06/29 09:06:45;;;;;;;14.10;11.13;;;;;;;;;;5071937;28;20283;-55
2023/06/29 09:09:11;;;;;;;15.93;10.37;;;;;;;;;;5072026;28;20231;-52
2023/06/29 09:11:37;;;;;;;13.83;10.03;;;;;;;;;;5072147;28;20387;-53
2023/06/29 09:14:05;;;;;;;11.30;8.00;;;;;;;;;;5072094;28;20271;-54
2023/06/29 09:16:31;;;;;;;15.20;9.03;;;;;;;;;;5072303;28;20212;-53
2023/06/29 09:18:58;;;;;;;15.07;9.80;;;;;;;;;;5072378;28;20196;-53
2023/06/29 09:21:25;;;;;;;12.83;9.23;;;;;;;;;;5072143;28;20577;-54
2023/06/29 09:23:55;;;;;;;16.10;9.37;;;;;;;;;;5072065;28;20201;-53
2023/06/29 09:26:23;;;;;;;11.17;8.70;;;;;;;;;;5071998;28;20291;-54
2023/06/29 09:28:49;;;;;;;14.97;8.80;;;;;;;;;;5072074;28;20271;-54
2023/06/29 09:31:15;;;;;;;13.40;8.53;;;;;;;;;;5072004;28;20224;-54
2023/06/29 09:33:41;;;;;;;14.30;8.40;;;;;;;;;;5071949;28;20219;-53
2023/06/29 09:36:07;;;;;;;11.57;8.47;;;;;;;;;;5071889;28;20219;-54
2023/06/29 09:38:34;;;;;;;10.97;7.53;;;;;;;;;;5071855;28;20288;-53
2023/06/29 09:41:02;;;;;;;14.07;8.83;;;;;;;;;;5072001;28;20659;-53
2023/06/29 09:43:28;;;;;;;12.47;8.53;;;;;;;;;;5071862;28;20721;-53
2023/06/29 09:46:00;;;;;;;14.10;8.40;;;;;;;;;;5071901;28;20249;-53
2023/06/29 09:48:26;;;;;;;14.63;8.27;;;;;;;;;;5071618;28;20264;-50
2023/06/29 09:50:54;;;;;;;13.87;7.93;;;;;;;;;;5071892;28;20345;-52
2023/06/29 09:53:28;;;;;;;10.40;7.00;;;;;;;;;;5071435;28;20286;-54
2023/06/29 09:55:55;;;;;;;10.47;8.17;;;;;;;;;;5071595;28;20273;-53
2023/06/29 09:58:22;;;;;;;9.27;7.33;;;;;;;;;;5071555;28;20222;-53
2023/06/29 10:00:49;;;;;;;9.07;7.10;;;;;;;;;;5071703;28;20262;-53
2023/06/29 10:03:15;;;;;;;7.83;6.40;;;;;;;;;;5071595;28;20265;-53
2023/06/29 10:05:41;;;;;;;10.20;7.10;;;;;;;;;;5071279;28;20304;-54
2023/06/29 10:08:08;;;;;;;13.10;8.17;;;;;;;;;;5071273;28;20288;-53
2023/06/29 10:10:35;;;;;;;11.60;7.60;;;;;;;;;;5071080;28;20193;-53
2023/06/29 10:13:04;;;;;;;9.97;7.60;;;;;;;;;;5059570;28;20221;-52
2023/06/29 10:15:32;;;;;;;10.67;7.20;;;;;;;;;;5070042;28;20250;-53
2023/06/29 10:18:02;;;;;;;12.43;7.90;;;;;;;;;;5069976;28;20604;-53
2023/06/29 10:20:30;;;;;;;12.60;7.70;;;;;;;;;;5065862;28;20205;-52
2023/06/29 10:22:59;;;;;;;10.47;7.40;;;;;;;;;;5066070;28;20204;-51
2023/06/29 10:25:26;;;;;;;11.80;7.33;;;;;;;;;;5070828;28;20201;-52
2023/06/29 10:27:54;;;;;;;12.37;7.70;;;;;;;;;;5070310;28;20265;-53
2023/06/29 10:30:21;;;;;;;10.97;6.97;;;;;;;;;;5070708;28;20232;-52
2023/06/29 10:32:50;;;;;;;7.77;6.23;;;;;;;;;;5070604;28;20622;-52
2023/06/29 10:35:17;;;;;;;10.93;7.63;;;;;;;;;;5070646;28;20576;-53
2023/06/29 10:37:43;;;;;;;10.00;6.20;;;;;;;;;;5070520;28;20201;-53
2023/06/29 10:40:13;;;;;;;11.10;7.20;;;;;;;;;;5070391;28;20248;-52
2023/06/29 10:42:49;;;;;;;11.57;6.83;;;;;;;;;;5070326;28;20202;-53
2023/06/29 10:45:30;;;;;;;12.73;7.37;;;;;;;;;;5070641;28;20207;-52
2023/06/29 10:48:02;;;;;;;9.27;7.40;;;;;;;;;;5070522;28;20225;-53
2023/06/29 10:50:28;;;;;;;10.77;6.47;;;;;;;;;;5069947;28;20634;-55
2023/06/29 10:52:58;;;;;;;10.77;6.80;;;;;;;;;;5070317;28;20207;-52
2023/06/29 10:55:26;;;;;;;7.83;6.43;;;;;;;;;;5051669;28;20428;-53
2023/06/29 10:57:52;;;;;;;13.50;7.57;;;;;;;;;;5050573;28;20203;-54
2023/06/29 11:00:19;;;;;;;11.83;7.47;;;;;;;;;;5049614;28;20619;-53
2023/06/29 11:02:47;;;;;;;9.70;6.83;;;;;;;;;;5046423;28;20211;-53
2023/06/29 11:05:14;;;;;;;16.90;7.90;;;;;;;;;;5050235;28;20219;-52
2023/06/29 11:07:41;;;;;;;9.53;6.60;;;;;;;;;;5050216;28;20586;-53
2023/06/29 11:10:07;;;;;;;9.83;6.87;;;;;;;;;;5050346;28;20234;-53
2023/06/29 11:12:33;;;;;;;12.33;7.10;;;;;;;;;;5050313;28;20226;-52
2023/06/29 11:14:59;;;;;;;10.30;6.93;;;;;;;;;;5050563;28;20669;-52
2023/06/29 11:17:25;;;;;;;10.03;7.50;;;;;;;;;;5050240;28;20206;-53
2023/06/29 11:19:51;;;;;;;9.80;7.50;;;;;;;;;;5050348;28;20195;-53
2023/06/29 11:22:20;;;;;;;11.30;7.07;;;;;;;;;;5050256;28;20616;-53
2023/06/29 11:24:46;;;;;;;8.83;6.60;;;;;;;;;;5050049;28;20252;-53
2023/06/29 11:27:16;;;;;;;10.97;6.63;;;;;;;;;;5050234;28;20238;-51
2023/06/29 11:29:42;;;;;;;8.07;7.13;;;;;;;;;;5053754;28;20241;-56
2023/06/29 11:32:10;;;;;;;12.17;7.00;;;;;;;;;;5054218;28;20682;-52
2023/06/29 11:34:36;;;;;;;11.10;6.73;;;;;;;;;;5054413;28;20231;-52
2023/06/29 11:37:02;;;;;;;11.10;6.80;;;;;;;;;;5054097;28;20197;-52
2023/06/29 11:39:30;;;;;;;10.00;6.70;;;;;;;;;;5054412;28;20193;-53
2023/06/29 11:41:56;;;;;;;10.23;6.17;;;;;;;;;;5054286;28;20210;-52
2023/06/29 11:44:23;;;;;;;12.33;7.17;;;;;;;;;;5054233;28;20304;-52
2023/06/29 11:46:49;;;;;;;8.73;6.57;;;;;;;;;;5054038;28;20284;-52
2023/06/29 11:49:18;;;;;;;11.50;7.10;;;;;;;;;;5053666;28;20505;-54
2023/06/29 11:51:44;;;;;;;11.20;7.27;;;;;;;;;;5053916;28;20205;-54
2023/06/29 11:54:11;;;;;;;11.47;6.70;;;;;;;;;;5053960;28;20251;-54
2023/06/29 11:56:39;;;;;;;10.03;6.60;;;;;;;;;;5053934;28;20705;-53
2023/06/29 11:59:06;;;;;;;11.10;7.13;;;;;;;;;;5053838;28;20251;-54
2023/06/29 12:01:32;;;;;;;10.70;7.37;;;;;;;;;;5053776;28;20212;-54
2023/06/29 12:03:58;;;;;;;8.33;7.07;;;;;;;;;;5053806;28;20193;-53
2023/06/29 12:06:24;;;;;;;9.53;7.27;;;;;;;;;;5053803;28;20585;-52
2023/06/29 12:08:51;;;;;;;11.77;7.03;;;;;;;;;;5053490;28;20708;-53
2023/06/29 12:11:18;;;;;;;8.20;6.97;;;;;;;;;;5053728;28;20193;-53
2023/06/29 12:13:46;;;;;;;11.27;7.23;;;;;;;;;;5052850;28;20217;-53
2023/06/29 12:16:12;;;;;;;8.97;6.20;;;;;;;;;;5053438;28;20260;-53
2023/06/29 12:18:38;;;;;;;10.87;6.70;;;;;;;;;;5053317;28;20680;-53
2023/06/29 12:21:04;;;;;;;13.27;8.10;;;;;;;;;;5051873;28;20193;-54
2023/06/29 12:23:30;;;;;;;8.90;7.03;;;;;;;;;;5053317;28;20232;-53
2023/06/29 12:25:56;;;;;;;14.93;8.57;;;;;;;;;;5053394;28;20364;-52
2023/06/29 12:28:23;;;;;;;9.67;7.77;;;;;;;;;;5053249;28;20671;-53
2023/06/29 12:30:50;;;;;;;12.00;7.70;;;;;;;;;;5053213;28;20209;-52
2023/06/29 12:33:16;;;;;;;7.90;6.97;;;;;;;;;;5053091;28;20211;-53
2023/06/29 12:35:42;;;;;;;15.43;7.20;;;;;;;;;;5053175;28;20502;-53
2023/06/29 12:38:08;;;;;;;11.33;7.40;;;;;;;;;;5053111;28;20215;-53
2023/06/29 12:40:34;;;;;;;11.07;6.80;;;;;;;;;;5052310;28;20197;-53
2023/06/29 12:43:00;;;;;;;10.07;7.13;;;;;;;;;;5053170;28;20204;-53
2023/06/29 12:45:27;;;;;;;9.57;6.77;;;;;;;;;;5052736;28;20254;-53
2023/06/29 12:47:54;;;;;;;10.43;7.70;;;;;;;;;;5052703;28;20291;-54
2023/06/29 12:50:20;;;;;;;10.80;7.77;;;;;;;;;;5052741;28;20255;-53
2023/06/29 12:52:47;;;;;;;12.43;7.80;;;;;;;;;;5052717;28;20662;-53
2023/06/29 12:55:14;;;;;;;9.13;7.90;;;;;;;;;;5052778;28;20285;-53
2023/06/29 12:57:41;;;;;;;10.37;7.90;;;;;;;;;;5052810;28;20193;-53
2023/06/29 13:00:08;;;;;;;12.53;8.23;;;;;;;;;;5052500;28;20197;-53
2023/06/29 13:02:34;;;;;;;10.37;7.70;;;;;;;;;;5052734;28;20734;-53
2023/06/29 13:05:02;;;;;;;11.30;8.03;;;;;;;;;;5052609;28;20238;-54
2023/06/29 13:07:28;;;;;;;13.37;8.50;;;;;;;;;;5052366;28;20197;-54
2023/06/29 13:09:54;;;;;;;12.97;9.33;;;;;;;;;;5052677;28;20317;-53
2023/06/29 13:12:21;;;;;;;12.57;8.90;;;;;;;;;;5052044;28;20192;-54
2023/06/29 13:14:47;;;;;;;11.47;9.07;;;;;;;;;;5052404;28;20289;-54
2023/06/29 13:17:14;;;;;;;12.97;8.87;;;;;;;;;;5052481;28;20235;-54
2023/06/29 13:20:01;;;;;;;10.33;9.13;;;;;;;;;;5052059;28;20431;-54
2023/06/29 13:22:28;;;;;;;16.30;9.33;;;;;;;;;;5043380;28;20205;-54
2023/06/29 13:24:54;;;;;;;12.23;10.27;;;;;;;;;;5051805;28;20681;-54
2023/06/29 13:27:20;;;;;;;12.30;9.73;;;;;;;;;;5051704;28;20716;-54
2023/06/29 13:29:46;;;;;;;13.60;9.80;;;;;;;;;;5051400;28;20304;-54
2023/06/29 13:32:12;;;;;;;10.20;9.03;;;;;;;;;;5051661;28;20217;-54
2023/06/29 13:34:38;;;;;;;11.37;9.40;;;;;;;;;;5051433;28;20672;-54
2023/06/29 13:37:05;;;;;;;13.20;11.63;;;;;;;;;;5051817;28;20198;-54
2023/06/29 13:39:33;;;;;;;12.63;10.97;;;;;;;;;;5051391;28;20197;-53
2023/06/29 13:41:59;;;;;;;15.33;11.83;;;;;;;;;;5051722;28;20217;-54
2023/06/29 13:44:25;;;;;;;13.30;11.90;;;;;;;;;;5051213;28;20198;-54
2023/06/29 13:46:51;;;;;;;15.60;12.30;;;;;;;;;;5051389;28;20392;-54
2023/06/29 13:49:17;;;;;;;16.07;12.90;;;;;;;;;;5051257;28;20269;-54
2023/06/29 13:51:43;;;;;;;17.07;12.60;;;;;;;;;;5049989;28;20198;-54
2023/06/29 13:54:09;;;;;;;18.53;13.00;;;;;;;;;;5051417;28;20193;-53
2023/06/29 13:56:37;;;;;;;15.37;12.77;;;;;;;;;;5051537;28;20548;-54
2023/06/29 13:59:06;;;;;;;15.73;13.30;;;;;;;;;;5051714;28;20202;-54
2023/06/29 14:01:34;;;;;;;16.97;12.43;;;;;;;;;;5051702;28;20264;-53
2023/06/29 14:04:00;;;;;;;16.30;11.83;;;;;;;;;;5051679;28;20208;-54
2023/06/29 14:06:26;;;;;;;14.43;12.70;;;;;;;;;;5051466;28;20201;-54
2023/06/29 14:08:52;;;;;;;13.23;11.73;;;;;;;;;;5051167;28;20256;-54
2023/06/29 14:11:18;;;;;;;16.40;12.27;;;;;;;;;;5051537;28;20202;-54
2023/06/29 14:13:46;;;;;;;13.17;10.77;;;;;;;;;;5051195;28;20201;-54
2023/06/29 14:16:12;;;;;;;13.47;11.47;;;;;;;;;;5051255;28;20303;-53
2023/06/29 14:18:38;;;;;;;15.67;12.43;;;;;;;;;;5051125;28;20197;-53
2023/06/29 14:21:04;;;;;;;16.40;12.27;;;;;;;;;;5051147;28;20209;-53
2023/06/29 14:23:31;;;;;;;15.40;12.40;;;;;;;;;;5051012;28;20243;-53
2023/06/29 14:25:57;;;;;;;16.63;13.03;;;;;;;;;;5051076;28;20241;-53
2023/06/29 14:28:23;;;;;;;16.97;12.63;;;;;;;;;;5050984;28;20209;-54